Capon Bridge, West Virginia
Current Conditions -  °F | °C
As of 8:35 PM on Saturday 25 Oct 2014 (Local Time) from KOKV Reporting Station
Clear Clear  
Wind Chill: 18°   Ceiling: Unl
Heat Index: 18°   Visibility: 10mi
Dew Point:   Wind: 5mph
Humidity: 40%   Direction: 250°WSW
Pressure: 29.75"   Gusts: NA
Location:  39.3°N, 78.44°W
Report Text: KOKV 260035Z AUTO 25004KT 10SM CLR 18/04 A2975 RMK AO2
Loading
Personal Weather Stations






























Interactive Weather Map
Tropical Storm Tracking
New forecast layout! Learn more

10-Day Weather Forecast

Advertisements
Track Severe Weather on mobile